createdAt,value
2023-01-29T00:00:49.553Z,15.98
2023-01-29T00:03:17.134Z,15.99
2023-01-29T00:05:45.142Z,15.98
2023-01-29T00:08:12.752Z,15.96
2023-01-29T00:10:40.607Z,15.97
2023-01-29T00:13:08.285Z,15.97
2023-01-29T00:15:35.964Z,15.98
2023-01-29T00:18:04.958Z,15.98
2023-01-29T00:20:32.599Z,15.97
2023-01-29T00:23:00.316Z,15.97
2023-01-29T00:25:28.062Z,15.97
2023-01-29T00:27:55.779Z,15.97
2023-01-29T00:30:23.454Z,15.97
2023-01-29T00:32:51.388Z,15.96
2023-01-29T00:35:20.636Z,15.96
2023-01-29T00:37:48.536Z,15.94
2023-01-29T00:40:16.637Z,15.96
2023-01-29T00:42:59.378Z,15.96
2023-01-29T00:45:27.049Z,15.96
2023-01-29T00:47:54.767Z,15.96
2023-01-29T00:50:24.008Z,15.94
2023-01-29T00:52:53.276Z,15.94
2023-01-29T00:55:22.133Z,15.95
2023-01-29T00:57:50.090Z,15.94
2023-01-29T01:47:15.515Z,15.93
2023-01-29T01:49:43.175Z,15.95
2023-01-29T01:52:10.739Z,15.94
2023-01-29T01:54:38.590Z,15.95
2023-01-29T01:57:16.015Z,15.95
2023-01-29T01:59:44.039Z,15.95
2023-01-29T02:47:37.340Z,15.85
2023-01-29T02:50:06.019Z,15.90
2023-01-29T02:52:35.117Z,15.91
2023-01-29T02:55:06.621Z,15.90
2023-01-29T02:57:35.171Z,15.89
2023-01-29T03:46:58.446Z,15.89
2023-01-29T03:49:28.952Z,15.88
2023-01-29T03:51:59.649Z,15.87
2023-01-29T03:54:29.696Z,15.88
2023-01-29T03:56:58.705Z,15.87
2023-01-29T03:59:29.604Z,15.87
2023-01-29T04:46:13.287Z,15.84
2023-01-29T04:48:44.115Z,15.84
2023-01-29T04:51:12.179Z,15.85
2023-01-29T04:53:41.957Z,15.86
2023-01-29T04:56:10.800Z,15.86
2023-01-29T04:58:42.218Z,15.86
2023-01-29T05:45:09.922Z,15.92
2023-01-29T05:47:38.954Z,15.92
2023-01-29T05:50:07.004Z,15.92
2023-01-29T05:52:34.616Z,15.92
2023-01-29T05:55:02.242Z,15.92
2023-01-29T05:57:29.831Z,15.93
2023-01-29T05:59:57.556Z,15.92
2023-01-29T06:02:25.131Z,15.94
2023-01-29T06:04:54.108Z,15.89
2023-01-29T06:07:21.928Z,15.94
2023-01-29T06:09:49.521Z,15.94
2023-01-29T06:12:17.112Z,15.94
2023-01-29T06:14:44.754Z,15.94
2023-01-29T06:17:12.573Z,15.94
2023-01-29T06:19:40.304Z,15.94
2023-01-29T06:22:09.319Z,15.94
2023-01-29T06:24:36.929Z,15.93
2023-01-29T06:27:04.643Z,15.93
2023-01-29T06:29:32.249Z,15.94
2023-01-29T06:31:59.971Z,15.93
2023-01-29T06:34:27.844Z,15.94
2023-01-29T06:36:55.398Z,15.94
2023-01-29T06:39:24.344Z,15.95
2023-01-29T06:41:51.892Z,15.95
2023-01-29T06:44:19.516Z,15.95
2023-01-29T06:46:47.289Z,15.95
2023-01-29T06:49:15.088Z,15.97
2023-01-29T06:51:42.883Z,15.96
2023-01-29T06:54:10.460Z,15.96
2023-01-29T06:56:39.412Z,15.97
2023-01-29T06:59:07.051Z,15.97
2023-01-29T07:01:36.609Z,15.96
2023-01-29T07:04:04.551Z,15.98
2023-01-29T07:06:34.487Z,15.97
2023-01-29T07:09:02.382Z,15.97
2023-01-29T07:11:30.227Z,15.97
2023-01-29T07:13:59.391Z,15.97
2023-01-29T07:16:27.378Z,15.97
2023-01-29T07:18:55.049Z,15.95
2023-01-29T07:21:23.010Z,15.95
2023-01-29T07:23:50.608Z,15.94
2023-01-29T07:26:18.205Z,15.93
2023-01-29T07:28:45.953Z,15.92
2023-01-29T07:31:15.354Z,15.94
2023-01-29T07:33:43.945Z,15.93
2023-01-29T07:36:11.859Z,15.95
2023-01-29T07:38:39.467Z,15.94
2023-01-29T07:41:07.091Z,15.93
2023-01-29T07:43:34.663Z,15.90
2023-01-29T07:46:02.822Z,15.94
2023-01-29T07:48:31.806Z,15.93
2023-01-29T07:50:59.698Z,15.94
2023-01-29T07:53:28.078Z,15.93
2023-01-29T07:55:55.902Z,15.93
2023-01-29T07:58:23.504Z,15.92
2023-01-29T08:00:51.119Z,15.92
2023-01-29T08:03:20.012Z,15.91
2023-01-29T08:05:48.978Z,15.93
2023-01-29T08:08:16.862Z,15.92
2023-01-29T08:10:44.412Z,15.93
2023-01-29T08:13:12.276Z,15.94
2023-01-29T08:15:40.148Z,15.94
2023-01-29T08:18:07.758Z,15.93
2023-01-29T08:20:35.340Z,15.92
2023-01-29T08:23:04.873Z,15.93
2023-01-29T08:25:32.563Z,15.94
2023-01-29T08:28:00.796Z,15.93
2023-01-29T08:30:29.270Z,15.92
2023-01-29T08:32:57.285Z,15.93
2023-01-29T08:35:24.976Z,15.92
2023-01-29T08:37:55.674Z,15.92
2023-01-29T08:40:24.594Z,15.93
2023-01-29T08:42:52.151Z,15.93
2023-01-29T08:45:19.733Z,15.94
2023-01-29T08:47:47.668Z,15.95
2023-01-29T08:50:15.677Z,15.96
2023-01-29T08:52:43.719Z,15.97
2023-01-29T08:55:11.486Z,15.98
2023-01-29T08:57:40.420Z,15.97
2023-01-29T09:00:09.263Z,15.96
2023-01-29T09:02:36.940Z,15.96
2023-01-29T09:05:05.170Z,15.95
2023-01-29T09:07:32.787Z,15.96
2023-01-29T09:10:00.534Z,15.95
2023-01-29T09:12:28.365Z,15.94
2023-01-29T09:14:57.423Z,15.93
2023-01-29T09:17:25.017Z,15.92
2023-01-29T09:19:53.313Z,15.91
2023-01-29T09:22:20.966Z,15.92
2023-01-29T09:24:48.773Z,15.91
2023-01-29T09:27:16.488Z,15.93
2023-01-29T09:29:44.466Z,15.94
2023-01-29T09:32:13.511Z,15.94
2023-01-29T09:34:41.077Z,15.96
2023-01-29T09:37:08.662Z,15.94
2023-01-29T09:39:36.235Z,15.94
2023-01-29T09:42:05.173Z,15.93
2023-01-29T09:44:36.388Z,15.94
2023-01-29T09:47:05.002Z,15.94
2023-01-29T09:49:34.430Z,15.93
2023-01-29T09:52:02.661Z,15.93
2023-01-29T09:54:30.882Z,15.93
2023-01-29T09:56:58.753Z,15.93
2023-01-29T09:59:27.725Z,15.93
2023-01-29T10:01:57.264Z,15.93
2023-01-29T10:04:42.621Z,15.93
2023-01-29T10:07:21.735Z,15.93
2023-01-29T10:09:53.326Z,15.92
2023-01-29T10:12:35.907Z,15.90
2023-01-29T10:15:05.451Z,15.91
2023-01-29T10:17:37.888Z,15.90
2023-01-29T10:20:15.190Z,15.89
2023-01-29T10:22:53.611Z,15.88
2023-01-29T10:25:21.481Z,15.90
2023-01-29T10:27:50.771Z,15.92
2023-01-29T10:30:21.548Z,15.93
2023-01-29T10:32:49.422Z,15.94
2023-01-29T10:35:20.187Z,15.95
2023-01-29T10:37:47.901Z,15.99
2023-01-29T10:40:21.275Z,15.99
2023-01-29T10:42:50.013Z,16.01
2023-01-29T10:45:19.987Z,16.01
2023-01-29T10:47:55.393Z,16.03
2023-01-29T10:50:26.696Z,16.00
2023-01-29T10:53:09.174Z,16.01
2023-01-29T10:55:48.262Z,16.02
2023-01-29T10:58:18.941Z,16.04
2023-01-29T11:00:46.695Z,16.04
2023-01-29T11:03:27.051Z,16.05
2023-01-29T11:05:56.953Z,16.05
2023-01-29T11:08:27.713Z,16.05
2023-01-29T11:10:59.894Z,16.06
2023-01-29T11:13:27.818Z,16.05
2023-01-29T11:15:55.571Z,16.03
2023-01-29T11:18:23.202Z,16.01
2023-01-29T11:21:00.516Z,16.00
2023-01-29T11:23:28.927Z,16.00
2023-01-29T11:25:58.287Z,16.00
2023-01-29T11:28:38.665Z,16.00
2023-01-29T11:31:16.244Z,16.00
2023-01-29T11:33:44.122Z,15.99
2023-01-29T11:36:29.368Z,15.97
2023-01-29T11:39:06.369Z,15.98
2023-01-29T11:41:35.320Z,16.00
2023-01-29T11:44:02.890Z,15.99
2023-01-29T11:46:30.542Z,15.98
2023-01-29T11:48:59.474Z,15.97
2023-01-29T11:51:33.704Z,15.98
2023-01-29T11:54:01.586Z,15.99
2023-01-29T11:56:30.281Z,15.99
2023-01-29T11:58:59.308Z,15.99
2023-01-29T12:01:31.143Z,16.00
2023-01-29T12:03:58.729Z,16.01
2023-01-29T12:06:28.532Z,15.99
2023-01-29T12:08:58.768Z,15.99
2023-01-29T12:11:27.166Z,15.99
2023-01-29T12:13:55.095Z,15.92
2023-01-29T12:16:24.825Z,15.96
2023-01-29T12:18:53.565Z,15.95
2023-01-29T12:21:21.945Z,15.94
2023-01-29T12:23:51.366Z,15.93
2023-01-29T12:26:19.552Z,15.94
2023-01-29T12:28:49.462Z,15.92
2023-01-29T12:31:20.432Z,15.93
2023-01-29T12:33:49.865Z,15.94
2023-01-29T12:36:19.118Z,15.95
2023-01-29T12:38:46.708Z,15.95
2023-01-29T12:41:23.447Z,15.94
2023-01-29T12:43:51.835Z,15.94
2023-01-29T12:46:19.827Z,15.97
2023-01-29T12:48:48.762Z,15.98
2023-01-29T12:51:16.896Z,15.93
2023-01-29T12:53:45.818Z,15.97
2023-01-29T12:56:14.298Z,15.95
2023-01-29T12:58:42.892Z,15.94
2023-01-29T13:01:12.856Z,15.96
2023-01-29T13:03:46.139Z,15.95
2023-01-29T13:06:15.732Z,15.95
2023-01-29T13:08:44.213Z,15.96
2023-01-29T13:11:12.772Z,15.96
2023-01-29T13:13:42.418Z,15.96
2023-01-29T13:16:11.430Z,15.96
2023-01-29T13:18:41.460Z,15.95
2023-01-29T13:21:12.849Z,15.96
2023-01-29T13:23:43.086Z,15.97
2023-01-29T13:26:11.894Z,15.97
2023-01-29T13:28:40.617Z,15.97
2023-01-29T13:31:11.973Z,15.97
2023-01-29T13:33:39.554Z,15.97
2023-01-29T13:36:07.443Z,16.00
2023-01-29T13:38:36.080Z,16.02
2023-01-29T13:41:05.845Z,16.02
2023-01-29T13:43:35.003Z,16.00
2023-01-29T13:46:03.873Z,15.99
2023-01-29T13:48:32.468Z,15.98
2023-01-29T13:51:01.482Z,15.99
2023-01-29T13:53:29.677Z,15.98
2023-01-29T13:55:57.223Z,15.99
2023-01-29T13:58:39.763Z,15.99
2023-01-29T14:01:08.817Z,15.97
2023-01-29T14:04:03.708Z,15.96
2023-01-29T14:06:42.547Z,15.97
2023-01-29T14:09:28.956Z,15.97
2023-01-29T14:11:56.658Z,15.97
2023-01-29T14:14:42.891Z,15.97
2023-01-29T14:17:11.907Z,15.98
2023-01-29T14:19:39.549Z,15.97
2023-01-29T14:22:07.063Z,15.97
2023-01-29T14:24:34.649Z,15.98
2023-01-29T14:27:03.360Z,15.98
2023-01-29T14:29:35.438Z,15.97
2023-01-29T14:32:09.336Z,15.95
2023-01-29T14:34:43.670Z,15.92
2023-01-29T14:37:19.345Z,15.92
2023-01-29T14:39:48.164Z,15.92
2023-01-29T14:42:17.983Z,15.91
2023-01-29T14:44:49.544Z,15.89
2023-01-29T14:47:20.573Z,15.88
2023-01-29T14:49:53.814Z,15.88
2023-01-29T14:52:22.181Z,15.89
2023-01-29T14:54:49.828Z,15.89
2023-01-29T14:57:17.971Z,15.88
2023-01-29T14:59:47.960Z,15.88
2023-01-29T15:02:16.753Z,15.87
2023-01-29T15:04:45.053Z,15.86
2023-01-29T15:07:18.990Z,15.86
2023-01-29T15:09:47.463Z,15.84
2023-01-29T15:12:18.112Z,15.85
2023-01-29T15:14:47.543Z,15.84
2023-01-29T15:17:19.877Z,15.83
2023-01-29T15:19:49.030Z,15.81
2023-01-29T15:22:18.331Z,15.81
2023-01-29T15:24:46.318Z,15.85
2023-01-29T15:27:15.156Z,15.85
2023-01-29T15:29:42.892Z,15.85
2023-01-29T15:32:11.968Z,15.86
2023-01-29T15:34:42.714Z,15.85
2023-01-29T15:40:03.155Z,15.87
2023-01-29T15:42:31.577Z,15.87
2023-01-29T15:44:59.207Z,15.84
2023-01-29T15:47:27.547Z,15.86
2023-01-29T15:49:55.181Z,15.84
2023-01-29T15:52:23.927Z,15.83
2023-01-29T15:54:51.504Z,15.83
2023-01-29T15:57:25.085Z,15.85
2023-01-29T15:59:53.453Z,15.85
2023-01-29T16:02:30.097Z,15.85
2023-01-29T16:04:57.920Z,15.87
2023-01-29T16:07:25.541Z,15.88
2023-01-29T16:09:53.127Z,15.87
2023-01-29T16:12:20.722Z,15.89
2023-01-29T16:14:50.121Z,15.89
2023-01-29T16:17:24.335Z,15.89
2023-01-29T16:19:58.233Z,15.90
2023-01-29T16:22:26.229Z,15.89
2023-01-29T16:24:54.127Z,15.89
2023-01-29T16:27:21.704Z,15.89
2023-01-29T16:29:50.751Z,15.90
2023-01-29T16:32:18.449Z,15.90
2023-01-29T16:34:47.942Z,15.90
2023-01-29T16:37:19.922Z,15.90
2023-01-29T16:39:48.052Z,15.89
2023-01-29T16:42:22.666Z,15.88
2023-01-29T16:44:55.490Z,15.87
2023-01-29T16:47:33.287Z,15.86
2023-01-29T16:50:02.065Z,15.87
2023-01-29T16:52:30.356Z,15.89
2023-01-29T16:55:02.100Z,15.91
2023-01-29T16:57:31.021Z,15.90
2023-01-29T17:00:00.397Z,15.91
2023-01-29T17:02:28.494Z,15.90
2023-01-29T17:04:57.522Z,15.91
2023-01-29T17:07:25.087Z,15.90
2023-01-29T17:09:54.226Z,15.87
2023-01-29T17:12:22.351Z,15.86
2023-01-29T17:14:56.150Z,15.87
2023-01-29T17:17:25.396Z,15.87
2023-01-29T17:19:53.271Z,15.84
2023-01-29T17:22:20.892Z,15.83
2023-01-29T17:24:51.327Z,15.85
2023-01-29T17:27:19.862Z,15.85
2023-01-29T17:29:47.491Z,15.85
2023-01-29T17:32:15.220Z,15.84
2023-01-29T17:34:44.625Z,15.81
2023-01-29T17:37:13.597Z,15.83
2023-01-29T17:39:41.250Z,15.80
2023-01-29T17:42:09.713Z,15.81
2023-01-29T17:44:37.312Z,15.81
2023-01-29T17:47:05.405Z,15.80
2023-01-29T17:49:33.552Z,15.80
2023-01-29T17:52:02.704Z,15.78
2023-01-29T17:54:30.309Z,15.77
2023-01-29T17:56:58.262Z,15.77
2023-01-29T17:59:27.626Z,15.79
2023-01-29T18:01:55.220Z,15.79
2023-01-29T18:04:22.918Z,15.79
2023-01-29T18:06:50.836Z,15.77
2023-01-29T18:09:20.637Z,15.79
2023-01-29T18:11:48.263Z,15.81
2023-01-29T18:14:16.127Z,15.81
2023-01-29T18:16:43.854Z,15.82
2023-01-29T18:19:13.624Z,15.81
2023-01-29T18:21:41.230Z,15.81
2023-01-29T18:24:09.236Z,15.79
2023-01-29T18:26:38.268Z,15.79
2023-01-29T18:29:07.581Z,15.78
2023-01-29T18:31:35.591Z,15.80
2023-01-29T18:34:03.295Z,15.77
2023-01-29T18:36:30.975Z,15.76
2023-01-29T18:38:58.629Z,15.73
2023-01-29T18:41:26.228Z,15.71
2023-01-29T18:43:55.351Z,15.73
2023-01-29T18:46:24.270Z,15.74
2023-01-29T18:48:51.963Z,15.71
2023-01-29T18:51:19.730Z,15.69
2023-01-29T18:53:50.282Z,15.68
2023-01-29T18:56:18.356Z,15.67
2023-01-29T18:58:52.037Z,15.69
2023-01-29T19:01:25.149Z,15.73
2023-01-29T19:03:53.316Z,15.71
2023-01-29T19:06:21.205Z,15.73
2023-01-29T19:08:49.363Z,15.72
2023-01-29T19:11:17.297Z,15.73
2023-01-29T19:13:46.048Z,15.73
2023-01-29T19:18:55.994Z,15.73
2023-01-29T19:21:24.594Z,15.74
2023-01-29T19:23:52.292Z,15.73
2023-01-29T19:26:20.115Z,15.73
2023-01-29T19:28:47.899Z,15.76
2023-01-29T19:31:15.699Z,15.77
2023-01-29T19:33:43.390Z,15.76
2023-01-29T19:36:13.553Z,15.75
2023-01-29T19:38:41.383Z,15.71
2023-01-29T19:41:09.272Z,15.69
2023-01-29T19:43:38.214Z,15.69
2023-01-29T19:46:06.144Z,15.70
2023-01-29T19:48:34.005Z,15.70
2023-01-29T19:51:02.535Z,15.64
2023-01-29T19:53:31.643Z,15.68
2023-01-29T19:55:59.900Z,15.69
2023-01-29T19:58:27.739Z,15.68
2023-01-29T20:00:56.341Z,15.68
2023-01-29T20:03:24.436Z,15.68
2023-01-29T20:05:52.297Z,15.69
2023-01-29T20:08:20.834Z,15.67
2023-01-29T20:10:50.177Z,15.66
2023-01-29T20:13:18.036Z,15.67
2023-01-29T20:15:46.616Z,15.68
2023-01-29T20:18:14.342Z,15.68
2023-01-29T20:20:42.617Z,15.65
2023-01-29T20:23:10.338Z,15.64
2023-01-29T20:25:38.518Z,15.66
2023-01-29T20:28:07.954Z,15.66
2023-01-29T20:30:35.639Z,15.66
2023-01-29T20:33:03.995Z,15.65
2023-01-29T20:35:31.700Z,15.64
2023-01-29T20:37:59.438Z,15.65
2023-01-29T20:40:27.114Z,15.63
2023-01-29T20:42:54.961Z,15.65
2023-01-29T20:45:24.030Z,15.63
2023-01-29T20:47:51.622Z,15.62
2023-01-29T20:50:19.854Z,15.60
2023-01-29T20:52:47.697Z,15.53
2023-01-29T20:55:15.685Z,15.57
2023-01-29T20:57:43.604Z,15.58
2023-01-29T21:00:12.619Z,15.59
2023-01-29T21:02:41.668Z,15.58
2023-01-29T21:05:09.294Z,15.58
2023-01-29T21:07:37.061Z,15.61
2023-01-29T21:10:04.914Z,15.63
2023-01-29T21:12:32.522Z,15.65
2023-01-29T21:15:00.148Z,15.61
2023-01-29T21:17:28.189Z,15.58
2023-01-29T21:19:57.340Z,15.58
2023-01-29T21:22:25.538Z,15.60
2023-01-29T21:24:54.119Z,15.59
2023-01-29T21:27:22.517Z,15.60
2023-01-29T21:29:52.967Z,15.62
2023-01-29T21:32:22.592Z,15.64
2023-01-29T21:34:53.517Z,15.63
2023-01-29T21:37:24.588Z,15.64
2023-01-29T21:39:52.562Z,15.63
2023-01-29T21:42:37.147Z,15.62
2023-01-29T21:45:06.385Z,15.64
2023-01-29T21:47:34.482Z,15.60
2023-01-29T21:50:02.839Z,15.61
2023-01-29T21:52:34.349Z,15.60
2023-01-29T21:55:04.259Z,15.62
2023-01-29T21:57:35.291Z,15.65
2023-01-29T22:00:04.497Z,15.66
2023-01-29T22:02:37.136Z,15.64
2023-01-29T22:05:18.033Z,15.64
2023-01-29T22:07:49.232Z,15.63
2023-01-29T22:10:18.128Z,15.64
2023-01-29T22:12:47.857Z,15.65
2023-01-29T22:15:16.796Z,15.65
2023-01-29T22:17:51.424Z,15.66
2023-01-29T22:20:20.500Z,15.66
2023-01-29T22:22:50.436Z,15.62
2023-01-29T22:25:20.440Z,15.61
2023-01-29T22:27:48.462Z,15.62
2023-01-29T22:30:17.084Z,15.62
2023-01-29T22:32:45.180Z,15.62
2023-01-29T22:35:13.111Z,15.61
2023-01-29T22:37:42.820Z,15.62
2023-01-29T22:40:13.340Z,15.64
2023-01-29T22:42:41.552Z,15.63
2023-01-29T22:45:10.428Z,15.60
2023-01-29T22:47:38.870Z,15.56
2023-01-29T22:50:07.835Z,15.53
2023-01-29T22:52:39.600Z,15.55
2023-01-29T22:55:10.159Z,15.56
2023-01-29T22:57:39.914Z,15.59
2023-01-29T23:47:07.203Z,15.54
2023-01-29T23:49:34.919Z,15.54
2023-01-29T23:52:02.464Z,15.51
2023-01-29T23:54:30.229Z,15.53
2023-01-29T23:56:57.858Z,15.55
2023-01-29T23:59:33.116Z,15.56
